sensor_id;sensor_type;location;lat;lon;timestamp;temperature;humidity
36710;DHT22;22694;51.040;3.684;2022-11-14T00:02:12;16.70;77.80
36710;DHT22;22694;51.040;3.684;2022-11-14T00:04:37;16.70;77.80
36710;DHT22;22694;51.040;3.684;2022-11-14T00:07:03;16.70;78.40
36710;DHT22;22694;51.040;3.684;2022-11-14T00:09:28;16.70;77.80
36710;DHT22;22694;51.040;3.684;2022-11-14T00:11:54;16.70;77.80
36710;DHT22;22694;51.040;3.684;2022-11-14T00:14:20;16.70;77.80
36710;DHT22;22694;51.040;3.684;2022-11-14T00:16:46;16.70;77.80
36710;DHT22;22694;51.040;3.684;2022-11-14T00:19:12;16.70;77.80
36710;DHT22;22694;51.040;3.684;2022-11-14T00:21:38;16.60;77.70
36710;DHT22;22694;51.040;3.684;2022-11-14T00:24:04;16.70;77.70
36710;DHT22;22694;51.040;3.684;2022-11-14T00:26:29;16.70;77.60
36710;DHT22;22694;51.040;3.684;2022-11-14T00:28:55;16.70;77.70
36710;DHT22;22694;51.040;3.684;2022-11-14T00:31:21;16.70;77.70
36710;DHT22;22694;51.040;3.684;2022-11-14T00:33:47;16.70;77.60
36710;DHT22;22694;51.040;3.684;2022-11-14T00:36:12;16.70;77.60
36710;DHT22;22694;51.040;3.684;2022-11-14T00:38:38;16.70;77.70
36710;DHT22;22694;51.040;3.684;2022-11-14T00:41:03;16.70;77.60
36710;DHT22;22694;51.040;3.684;2022-11-14T00:43:29;16.70;77.50
36710;DHT22;22694;51.040;3.684;2022-11-14T00:45:55;16.60;77.40
36710;DHT22;22694;51.040;3.684;2022-11-14T00:48:20;16.60;77.40
36710;DHT22;22694;51.040;3.684;2022-11-14T00:50:46;16.60;77.30
36710;DHT22;22694;51.040;3.684;2022-11-14T00:53:12;16.60;77.40
36710;DHT22;22694;51.040;3.684;2022-11-14T00:55:38;16.60;77.40
36710;DHT22;22694;51.040;3.684;2022-11-14T00:58:03;16.60;77.30
36710;DHT22;22694;51.040;3.684;2022-11-14T01:00:29;16.60;77.20
36710;DHT22;22694;51.040;3.684;2022-11-14T01:02:54;16.60;77.20
36710;DHT22;22694;51.040;3.684;2022-11-14T01:05:22;16.60;77.30
36710;DHT22;22694;51.040;3.684;2022-11-14T01:07:48;16.60;77.80
36710;DHT22;22694;51.040;3.684;2022-11-14T01:10:15;16.60;77.10
36710;DHT22;22694;51.040;3.684;2022-11-14T01:12:40;16.60;77.10
36710;DHT22;22694;51.040;3.684;2022-11-14T01:15:07;16.60;77.10
36710;DHT22;22694;51.040;3.684;2022-11-14T01:17:32;16.60;77.10
36710;DHT22;22694;51.040;3.684;2022-11-14T01:19:58;16.60;77.00
36710;DHT22;22694;51.040;3.684;2022-11-14T01:22:24;16.60;77.00
36710;DHT22;22694;51.040;3.684;2022-11-14T01:24:49;16.60;76.90
36710;DHT22;22694;51.040;3.684;2022-11-14T01:27:15;16.60;77.00
36710;DHT22;22694;51.040;3.684;2022-11-14T01:29:41;16.60;76.90
36710;DHT22;22694;51.040;3.684;2022-11-14T01:32:06;16.60;76.90
36710;DHT22;22694;51.040;3.684;2022-11-14T01:34:32;16.50;76.80
36710;DHT22;22694;51.040;3.684;2022-11-14T01:36:58;16.60;76.80
36710;DHT22;22694;51.040;3.684;2022-11-14T01:39:25;16.60;76.70
36710;DHT22;22694;51.040;3.684;2022-11-14T01:41:50;16.60;76.80
36710;DHT22;22694;51.040;3.684;2022-11-14T01:47:02;16.50;76.80
36710;DHT22;22694;51.040;3.684;2022-11-14T01:49:38;16.50;76.70
36710;DHT22;22694;51.040;3.684;2022-11-14T01:52:09;16.50;76.70
36710;DHT22;22694;51.040;3.684;2022-11-14T01:54:44;16.50;76.60
36710;DHT22;22694;51.040;3.684;2022-11-14T01:57:11;16.50;76.60
36710;DHT22;22694;51.040;3.684;2022-11-14T01:59:45;16.50;76.60
36710;DHT22;22694;51.040;3.684;2022-11-14T02:02:19;16.50;76.60
36710;DHT22;22694;51.040;3.684;2022-11-14T02:04:52;16.50;76.50
36710;DHT22;22694;51.040;3.684;2022-11-14T02:07:19;16.50;76.50
36710;DHT22;22694;51.040;3.684;2022-11-14T02:09:46;16.40;76.40
36710;DHT22;22694;51.040;3.684;2022-11-14T02:12:14;16.50;76.40
36710;DHT22;22694;51.040;3.684;2022-11-14T02:14:42;16.50;76.30
36710;DHT22;22694;51.040;3.684;2022-11-14T02:17:10;16.50;76.30
36710;DHT22;22694;51.040;3.684;2022-11-14T02:19:51;16.50;76.30
36710;DHT22;22694;51.040;3.684;2022-11-14T02:22:17;16.50;76.30
36710;DHT22;22694;51.040;3.684;2022-11-14T02:24:43;16.50;76.20
36710;DHT22;22694;51.040;3.684;2022-11-14T02:27:09;16.50;76.20
36710;DHT22;22694;51.040;3.684;2022-11-14T02:29:36;16.50;76.20
36710;DHT22;22694;51.040;3.684;2022-11-14T02:32:02;16.50;76.80
36710;DHT22;22694;51.040;3.684;2022-11-14T02:34:28;16.50;76.80
36710;DHT22;22694;51.040;3.684;2022-11-14T02:36:54;16.40;76.10
36710;DHT22;22694;51.040;3.684;2022-11-14T02:39:21;16.40;76.10
36710;DHT22;22694;51.040;3.684;2022-11-14T02:41:46;16.40;76.10
36710;DHT22;22694;51.040;3.684;2022-11-14T02:44:12;16.50;76.40
36710;DHT22;22694;51.040;3.684;2022-11-14T02:46:37;16.50;76.40
36710;DHT22;22694;51.040;3.684;2022-11-14T02:49:03;16.50;76.30
36710;DHT22;22694;51.040;3.684;2022-11-14T02:51:29;16.50;76.30
36710;DHT22;22694;51.040;3.684;2022-11-14T02:53:54;16.50;76.30
36710;DHT22;22694;51.040;3.684;2022-11-14T02:56:20;16.50;76.20
36710;DHT22;22694;51.040;3.684;2022-11-14T02:58:46;16.50;76.10
36710;DHT22;22694;51.040;3.684;2022-11-14T03:01:11;16.50;76.20
36710;DHT22;22694;51.040;3.684;2022-11-14T03:03:37;16.50;76.20
36710;DHT22;22694;51.040;3.684;2022-11-14T03:06:03;16.50;76.30
36710;DHT22;22694;51.040;3.684;2022-11-14T03:08:29;16.50;76.20
36710;DHT22;22694;51.040;3.684;2022-11-14T03:10:55;16.50;76.10
36710;DHT22;22694;51.040;3.684;2022-11-14T03:13:21;16.40;76.10
36710;DHT22;22694;51.040;3.684;2022-11-14T03:15:46;16.40;76.10
36710;DHT22;22694;51.040;3.684;2022-11-14T03:18:12;16.50;76.10
36710;DHT22;22694;51.040;3.684;2022-11-14T03:20:38;16.40;76.00
36710;DHT22;22694;51.040;3.684;2022-11-14T03:23:04;16.40;75.90
36710;DHT22;22694;51.040;3.684;2022-11-14T03:25:30;16.40;75.90
36710;DHT22;22694;51.040;3.684;2022-11-14T03:27:55;16.40;75.90
36710;DHT22;22694;51.040;3.684;2022-11-14T03:30:21;16.40;76.00
36710;DHT22;22694;51.040;3.684;2022-11-14T03:32:46;16.40;75.90
36710;DHT22;22694;51.040;3.684;2022-11-14T03:35:12;16.40;75.90
36710;DHT22;22694;51.040;3.684;2022-11-14T03:37:38;16.40;75.80
36710;DHT22;22694;51.040;3.684;2022-11-14T03:40:04;16.40;75.80
36710;DHT22;22694;51.040;3.684;2022-11-14T03:42:34;16.40;75.70
36710;DHT22;22694;51.040;3.684;2022-11-14T03:44:59;16.40;75.70
36710;DHT22;22694;51.040;3.684;2022-11-14T03:47:25;16.40;75.80
36710;DHT22;22694;51.040;3.684;2022-11-14T03:49:51;16.40;75.80
36710;DHT22;22694;51.040;3.684;2022-11-14T03:52:16;16.40;75.80
36710;DHT22;22694;51.040;3.684;2022-11-14T03:54:42;16.40;75.90
36710;DHT22;22694;51.040;3.684;2022-11-14T03:57:07;16.40;75.90
36710;DHT22;22694;51.040;3.684;2022-11-14T03:59:33;16.40;75.80
36710;DHT22;22694;51.040;3.684;2022-11-14T04:01:58;16.40;75.80
36710;DHT22;22694;51.040;3.684;2022-11-14T04:04:24;16.40;75.70
36710;DHT22;22694;51.040;3.684;2022-11-14T04:06:49;16.40;75.70
36710;DHT22;22694;51.040;3.684;2022-11-14T04:09:15;16.40;75.70
36710;DHT22;22694;51.040;3.684;2022-11-14T04:11:41;16.40;75.70
36710;DHT22;22694;51.040;3.684;2022-11-14T04:14:06;16.40;75.70
36710;DHT22;22694;51.040;3.684;2022-11-14T04:16:32;16.40;75.70
36710;DHT22;22694;51.040;3.684;2022-11-14T04:18:57;16.40;75.60
36710;DHT22;22694;51.040;3.684;2022-11-14T04:21:23;16.40;75.50
36710;DHT22;22694;51.040;3.684;2022-11-14T04:23:48;16.40;75.50
36710;DHT22;22694;51.040;3.684;2022-11-14T04:26:14;16.40;75.50
36710;DHT22;22694;51.040;3.684;2022-11-14T04:28:40;16.40;75.50
36710;DHT22;22694;51.040;3.684;2022-11-14T04:31:05;16.40;75.50
36710;DHT22;22694;51.040;3.684;2022-11-14T04:33:31;16.40;76.10
36710;DHT22;22694;51.040;3.684;2022-11-14T04:35:56;16.40;75.40
36710;DHT22;22694;51.040;3.684;2022-11-14T04:38:22;16.40;75.40
36710;DHT22;22694;51.040;3.684;2022-11-14T04:40:51;16.40;75.30
36710;DHT22;22694;51.040;3.684;2022-11-14T04:43:18;16.40;75.30
36710;DHT22;22694;51.040;3.684;2022-11-14T04:45:44;16.40;75.20
36710;DHT22;22694;51.040;3.684;2022-11-14T04:48:10;16.40;75.20
36710;DHT22;22694;51.040;3.684;2022-11-14T04:50:36;16.40;75.20
36710;DHT22;22694;51.040;3.684;2022-11-14T04:53:02;16.40;75.10
36710;DHT22;22694;51.040;3.684;2022-11-14T04:55:28;16.40;75.10
36710;DHT22;22694;51.040;3.684;2022-11-14T04:57:55;16.40;75.10
36710;DHT22;22694;51.040;3.684;2022-11-14T05:00:21;16.40;75.10
36710;DHT22;22694;51.040;3.684;2022-11-14T05:02:47;16.40;75.00
36710;DHT22;22694;51.040;3.684;2022-11-14T05:05:12;16.40;75.00
36710;DHT22;22694;51.040;3.684;2022-11-14T05:07:38;16.40;75.10
36710;DHT22;22694;51.040;3.684;2022-11-14T05:10:04;16.50;75.50
36710;DHT22;22694;51.040;3.684;2022-11-14T05:12:30;16.60;75.20
36710;DHT22;22694;51.040;3.684;2022-11-14T05:14:55;16.60;75.10
36710;DHT22;22694;51.040;3.684;2022-11-14T05:17:21;16.60;74.90
36710;DHT22;22694;51.040;3.684;2022-11-14T05:19:47;16.60;74.70
36710;DHT22;22694;51.040;3.684;2022-11-14T05:22:12;16.60;74.60
36710;DHT22;22694;51.040;3.684;2022-11-14T05:24:38;16.70;74.60
36710;DHT22;22694;51.040;3.684;2022-11-14T05:27:04;16.60;74.60
36710;DHT22;22694;51.040;3.684;2022-11-14T05:29:29;16.70;74.70
36710;DHT22;22694;51.040;3.684;2022-11-14T05:31:55;16.70;74.50
36710;DHT22;22694;51.040;3.684;2022-11-14T05:34:22;16.70;74.50
36710;DHT22;22694;51.040;3.684;2022-11-14T05:36:48;16.60;74.30
36710;DHT22;22694;51.040;3.684;2022-11-14T05:39:13;16.70;74.20
36710;DHT22;22694;51.040;3.684;2022-11-14T05:41:39;16.70;74.20
36710;DHT22;22694;51.040;3.684;2022-11-14T05:44:05;16.70;74.20
36710;DHT22;22694;51.040;3.684;2022-11-14T05:46:31;16.70;74.20
36710;DHT22;22694;51.040;3.684;2022-11-14T05:48:57;16.60;74.00
36710;DHT22;22694;51.040;3.684;2022-11-14T05:51:22;16.70;74.00
36710;DHT22;22694;51.040;3.684;2022-11-14T05:53:48;16.70;74.00
36710;DHT22;22694;51.040;3.684;2022-11-14T05:56:13;16.60;73.90
36710;DHT22;22694;51.040;3.684;2022-11-14T05:58:39;16.60;73.90
36710;DHT22;22694;51.040;3.684;2022-11-14T06:01:10;16.70;73.90
36710;DHT22;22694;51.040;3.684;2022-11-14T06:03:42;16.60;73.90
36710;DHT22;22694;51.040;3.684;2022-11-14T06:06:09;16.70;74.60
36710;DHT22;22694;51.040;3.684;2022-11-14T06:08:35;16.70;75.00
36710;DHT22;22694;51.040;3.684;2022-11-14T06:11:03;16.70;74.90
36710;DHT22;22694;51.040;3.684;2022-11-14T06:13:30;16.60;75.20
36710;DHT22;22694;51.040;3.684;2022-11-14T06:16:03;16.40;75.40
36710;DHT22;22694;51.040;3.684;2022-11-14T06:18:30;16.20;75.50
36710;DHT22;22694;51.040;3.684;2022-11-14T06:21:00;16.10;75.60
36710;DHT22;22694;51.040;3.684;2022-11-14T06:23:26;15.90;75.60
36710;DHT22;22694;51.040;3.684;2022-11-14T06:26:00;15.80;75.40
36710;DHT22;22694;51.040;3.684;2022-11-14T06:28:26;15.60;75.10
36710;DHT22;22694;51.040;3.684;2022-11-14T06:30:57;15.50;75.10
36710;DHT22;22694;51.040;3.684;2022-11-14T06:33:23;15.40;75.10
36710;DHT22;22694;51.040;3.684;2022-11-14T06:35:48;15.30;75.10
36710;DHT22;22694;51.040;3.684;2022-11-14T06:38:14;15.20;74.80
36710;DHT22;22694;51.040;3.684;2022-11-14T06:40:39;15.20;74.80
36710;DHT22;22694;51.040;3.684;2022-11-14T06:43:05;15.10;74.60
36710;DHT22;22694;51.040;3.684;2022-11-14T06:45:31;15.00;74.40
36710;DHT22;22694;51.040;3.684;2022-11-14T06:47:59;14.90;74.30
36710;DHT22;22694;51.040;3.684;2022-11-14T06:50:25;14.80;74.20
36710;DHT22;22694;51.040;3.684;2022-11-14T06:52:51;14.80;74.30
36710;DHT22;22694;51.040;3.684;2022-11-14T06:55:16;14.70;74.10
36710;DHT22;22694;51.040;3.684;2022-11-14T06:57:42;14.70;74.20
36710;DHT22;22694;51.040;3.684;2022-11-14T07:00:08;14.60;74.00
36710;DHT22;22694;51.040;3.684;2022-11-14T07:02:33;14.60;74.10
36710;DHT22;22694;51.040;3.684;2022-11-14T07:04:59;14.50;74.00
36710;DHT22;22694;51.040;3.684;2022-11-14T07:07:25;14.50;73.90
36710;DHT22;22694;51.040;3.684;2022-11-14T07:09:50;14.50;73.90
36710;DHT22;22694;51.040;3.684;2022-11-14T07:12:16;14.40;73.90
36710;DHT22;22694;51.040;3.684;2022-11-14T07:14:41;14.40;74.10
36710;DHT22;22694;51.040;3.684;2022-11-14T07:17:07;14.30;73.90
36710;DHT22;22694;51.040;3.684;2022-11-14T07:19:32;14.30;73.80
36710;DHT22;22694;51.040;3.684;2022-11-14T07:21:58;14.30;73.90
36710;DHT22;22694;51.040;3.684;2022-11-14T07:24:23;14.20;73.90
36710;DHT22;22694;51.040;3.684;2022-11-14T07:26:49;14.20;73.90
36710;DHT22;22694;51.040;3.684;2022-11-14T07:29:15;14.10;73.90
36710;DHT22;22694;51.040;3.684;2022-11-14T07:31:40;14.20;73.90
36710;DHT22;22694;51.040;3.684;2022-11-14T07:34:07;14.10;73.90
36710;DHT22;22694;51.040;3.684;2022-11-14T07:36:33;14.10;73.90
36710;DHT22;22694;51.040;3.684;2022-11-14T07:38:59;14.00;73.80
36710;DHT22;22694;51.040;3.684;2022-11-14T07:41:24;14.00;73.90
36710;DHT22;22694;51.040;3.684;2022-11-14T07:43:50;14.00;74.10
36710;DHT22;22694;51.040;3.684;2022-11-14T07:46:16;14.00;74.10
36710;DHT22;22694;51.040;3.684;2022-11-14T07:48:43;13.90;74.10
36710;DHT22;22694;51.040;3.684;2022-11-14T07:51:15;13.90;74.30
36710;DHT22;22694;51.040;3.684;2022-11-14T07:53:41;13.90;74.30
36710;DHT22;22694;51.040;3.684;2022-11-14T07:56:08;13.90;74.40
36710;DHT22;22694;51.040;3.684;2022-11-14T07:58:38;13.90;80.90
36710;DHT22;22694;51.040;3.684;2022-11-14T08:01:05;14.20;88.80
36710;DHT22;22694;51.040;3.684;2022-11-14T08:03:31;14.60;90.50
36710;DHT22;22694;51.040;3.684;2022-11-14T08:06:08;14.80;88.40
36710;DHT22;22694;51.040;3.684;2022-11-14T08:08:34;14.90;86.10
36710;DHT22;22694;51.040;3.684;2022-11-14T08:11:00;14.90;85.10
36710;DHT22;22694;51.040;3.684;2022-11-14T08:13:27;14.80;84.00
36710;DHT22;22694;51.040;3.684;2022-11-14T08:15:53;14.80;83.80
36710;DHT22;22694;51.040;3.684;2022-11-14T08:18:19;14.80;84.10
36710;DHT22;22694;51.040;3.684;2022-11-14T08:20:44;14.80;84.20
36710;DHT22;22694;51.040;3.684;2022-11-14T08:23:11;14.70;84.30
36710;DHT22;22694;51.040;3.684;2022-11-14T08:25:37;14.80;86.20
36710;DHT22;22694;51.040;3.684;2022-11-14T08:28:03;14.80;85.80
36710;DHT22;22694;51.040;3.684;2022-11-14T08:30:29;14.90;86.80
36710;DHT22;22694;51.040;3.684;2022-11-14T08:32:54;14.90;85.70
36710;DHT22;22694;51.040;3.684;2022-11-14T08:35:21;14.70;79.60
36710;DHT22;22694;51.040;3.684;2022-11-14T08:37:47;14.60;76.80
36710;DHT22;22694;51.040;3.684;2022-11-14T08:40:12;14.50;75.80
36710;DHT22;22694;51.040;3.684;2022-11-14T08:42:38;14.40;75.90
36710;DHT22;22694;51.040;3.684;2022-11-14T08:45:04;14.30;76.10
36710;DHT22;22694;51.040;3.684;2022-11-14T08:47:30;14.20;76.30
36710;DHT22;22694;51.040;3.684;2022-11-14T08:49:55;14.20;76.70
36710;DHT22;22694;51.040;3.684;2022-11-14T08:52:21;14.10;77.00
36710;DHT22;22694;51.040;3.684;2022-11-14T08:54:47;14.10;77.20
36710;DHT22;22694;51.040;3.684;2022-11-14T08:57:12;14.00;77.20
36710;DHT22;22694;51.040;3.684;2022-11-14T08:59:40;14.00;77.30
36710;DHT22;22694;51.040;3.684;2022-11-14T09:02:12;13.90;78.20
36710;DHT22;22694;51.040;3.684;2022-11-14T09:04:38;13.90;77.80
36710;DHT22;22694;51.040;3.684;2022-11-14T09:07:04;13.90;79.00
36710;DHT22;22694;51.040;3.684;2022-11-14T09:09:30;13.80;78.60
36710;DHT22;22694;51.040;3.684;2022-11-14T09:11:56;13.90;79.70
36710;DHT22;22694;51.040;3.684;2022-11-14T09:14:22;14.10;84.00
36710;DHT22;22694;51.040;3.684;2022-11-14T09:16:48;14.10;84.50
36710;DHT22;22694;51.040;3.684;2022-11-14T09:19:13;14.20;84.80
36710;DHT22;22694;51.040;3.684;2022-11-14T09:21:39;14.30;89.30
36710;DHT22;22694;51.040;3.684;2022-11-14T09:24:05;14.50;88.30
36710;DHT22;22694;51.040;3.684;2022-11-14T09:26:31;14.40;85.30
36710;DHT22;22694;51.040;3.684;2022-11-14T09:28:57;14.30;82.40
36710;DHT22;22694;51.040;3.684;2022-11-14T09:31:22;14.20;81.30
36710;DHT22;22694;51.040;3.684;2022-11-14T09:33:48;14.20;81.80
36710;DHT22;22694;51.040;3.684;2022-11-14T09:36:14;14.10;80.80
36710;DHT22;22694;51.040;3.684;2022-11-14T09:38:41;14.10;81.10
36710;DHT22;22694;51.040;3.684;2022-11-14T09:46:21;14.30;90.10
36710;DHT22;22694;51.040;3.684;2022-11-14T09:48:48;14.30;87.60
36710;DHT22;22694;51.040;3.684;2022-11-14T09:51:24;14.20;84.90
36710;DHT22;22694;51.040;3.684;2022-11-14T09:56:46;14.00;83.10
36710;DHT22;22694;51.040;3.684;2022-11-14T09:59:11;14.00;83.00
36710;DHT22;22694;51.040;3.684;2022-11-14T10:07:32;14.10;86.80
36710;DHT22;22694;51.040;3.684;2022-11-14T10:18:41;14.40;89.70
36710;DHT22;22694;51.040;3.684;2022-11-14T10:21:37;14.40;90.00
36710;DHT22;22694;51.040;3.684;2022-11-14T10:24:11;14.40;90.20
36710;DHT22;22694;51.040;3.684;2022-11-14T10:27:04;14.50;90.40
36710;DHT22;22694;51.040;3.684;2022-11-14T10:29:51;14.50;90.60
36710;DHT22;22694;51.040;3.684;2022-11-14T10:32:43;14.50;90.70
36710;DHT22;22694;51.040;3.684;2022-11-14T10:35:17;14.50;90.80
36710;DHT22;22694;51.040;3.684;2022-11-14T10:38:36;14.60;90.90
36710;DHT22;22694;51.040;3.684;2022-11-14T10:41:04;14.60;90.90
36710;DHT22;22694;51.040;3.684;2022-11-14T10:43:41;14.60;90.80
36710;DHT22;22694;51.040;3.684;2022-11-14T10:48:49;14.60;90.70
36710;DHT22;22694;51.040;3.684;2022-11-14T10:51:28;14.60;90.70
36710;DHT22;22694;51.040;3.684;2022-11-14T10:56:25;14.60;90.50
36710;DHT22;22694;51.040;3.684;2022-11-14T10:58:50;14.70;91.10
36710;DHT22;22694;51.040;3.684;2022-11-14T11:04:33;14.80;90.30
36710;DHT22;22694;51.040;3.684;2022-11-14T11:09:34;14.80;90.00
36710;DHT22;22694;51.040;3.684;2022-11-14T11:12:20;14.90;90.30
36710;DHT22;22694;51.040;3.684;2022-11-14T11:14:48;14.90;90.10
36710;DHT22;22694;51.040;3.684;2022-11-14T11:17:17;14.80;90.00
36710;DHT22;22694;51.040;3.684;2022-11-14T11:19:45;14.90;90.00
36710;DHT22;22694;51.040;3.684;2022-11-14T11:22:37;14.90;89.60
36710;DHT22;22694;51.040;3.684;2022-11-14T11:30:37;14.60;88.80
36710;DHT22;22694;51.040;3.684;2022-11-14T11:35:45;14.80;89.50
36710;DHT22;22694;51.040;3.684;2022-11-14T11:38:14;14.90;89.40
36710;DHT22;22694;51.040;3.684;2022-11-14T11:40:43;15.00;90.40
36710;DHT22;22694;51.040;3.684;2022-11-14T11:43:28;15.00;90.50
36710;DHT22;22694;51.040;3.684;2022-11-14T11:45:55;15.00;90.20
36710;DHT22;22694;51.040;3.684;2022-11-14T11:48:33;14.90;89.50
36710;DHT22;22694;51.040;3.684;2022-11-14T11:51:03;14.90;89.10
36710;DHT22;22694;51.040;3.684;2022-11-14T11:53:36;14.90;90.70
36710;DHT22;22694;51.040;3.684;2022-11-14T11:56:16;15.10;92.10
36710;DHT22;22694;51.040;3.684;2022-11-14T11:59:04;15.20;91.40
36710;DHT22;22694;51.040;3.684;2022-11-14T12:01:34;15.10;90.50
36710;DHT22;22694;51.040;3.684;2022-11-14T12:04:00;14.90;88.80
36710;DHT22;22694;51.040;3.684;2022-11-14T12:06:28;14.80;85.60
36710;DHT22;22694;51.040;3.684;2022-11-14T12:09:05;14.70;83.70
36710;DHT22;22694;51.040;3.684;2022-11-14T12:11:36;14.50;82.90
36710;DHT22;22694;51.040;3.684;2022-11-14T12:14:44;14.50;82.70
36710;DHT22;22694;51.040;3.684;2022-11-14T12:20:31;14.40;84.30
36710;DHT22;22694;51.040;3.684;2022-11-14T12:29:15;14.40;85.00
36710;DHT22;22694;51.040;3.684;2022-11-14T12:31:44;14.50;85.10
36710;DHT22;22694;51.040;3.684;2022-11-14T12:34:14;14.50;84.70
36710;DHT22;22694;51.040;3.684;2022-11-14T12:36:43;14.40;84.70
36710;DHT22;22694;51.040;3.684;2022-11-14T12:39:20;14.50;84.90
36710;DHT22;22694;51.040;3.684;2022-11-14T12:41:47;14.50;85.00
36710;DHT22;22694;51.040;3.684;2022-11-14T12:52:03;14.50;84.30
36710;DHT22;22694;51.040;3.684;2022-11-14T12:54:43;14.40;84.10
36710;DHT22;22694;51.040;3.684;2022-11-14T12:57:58;14.40;83.80
36710;DHT22;22694;51.040;3.684;2022-11-14T13:00:15;14.40;83.90
36710;DHT22;22694;51.040;3.684;2022-11-14T13:08:28;14.80;91.30
36710;DHT22;22694;51.040;3.684;2022-11-14T13:10:58;14.80;90.60
36710;DHT22;22694;51.040;3.684;2022-11-14T13:13:24;14.90;91.20
36710;DHT22;22694;51.040;3.684;2022-11-14T13:16:22;15.10;92.00
36710;DHT22;22694;51.040;3.684;2022-11-14T13:22:20;15.20;90.10
36710;DHT22;22694;51.040;3.684;2022-11-14T13:27:30;14.90;85.60
36710;DHT22;22694;51.040;3.684;2022-11-14T13:29:57;14.80;83.70
36710;DHT22;22694;51.040;3.684;2022-11-14T13:43:21;14.40;83.60
36710;DHT22;22694;51.040;3.684;2022-11-14T13:51:21;14.20;83.90
36710;DHT22;22694;51.040;3.684;2022-11-14T13:53:48;14.10;84.00
36710;DHT22;22694;51.040;3.684;2022-11-14T13:56:36;14.10;84.10
36710;DHT22;22694;51.040;3.684;2022-11-14T14:10:39;14.00;84.10
36710;DHT22;22694;51.040;3.684;2022-11-14T14:13:42;13.90;84.10
36710;DHT22;22694;51.040;3.684;2022-11-14T14:16:18;13.90;84.30
36710;DHT22;22694;51.040;3.684;2022-11-14T14:22:04;13.80;84.40
36710;DHT22;22694;51.040;3.684;2022-11-14T14:27:39;13.80;84.30
36710;DHT22;22694;51.040;3.684;2022-11-14T14:30:13;13.80;84.30
36710;DHT22;22694;51.040;3.684;2022-11-14T14:32:40;13.90;87.50
36710;DHT22;22694;51.040;3.684;2022-11-14T14:35:38;13.90;87.30
36710;DHT22;22694;51.040;3.684;2022-11-14T14:38:11;13.90;85.00
36710;DHT22;22694;51.040;3.684;2022-11-14T14:40:39;13.90;84.60
36710;DHT22;22694;51.040;3.684;2022-11-14T14:43:06;13.80;84.50
36710;DHT22;22694;51.040;3.684;2022-11-14T14:45:46;13.80;84.70
36710;DHT22;22694;51.040;3.684;2022-11-14T14:48:25;13.80;84.70
36710;DHT22;22694;51.040;3.684;2022-11-14T14:50:56;13.70;85.40
36710;DHT22;22694;51.040;3.684;2022-11-14T14:53:28;14.00;91.90
36710;DHT22;22694;51.040;3.684;2022-11-14T14:55:59;14.20;91.40
36710;DHT22;22694;51.040;3.684;2022-11-14T14:58:28;14.20;89.50
36710;DHT22;22694;51.040;3.684;2022-11-14T15:03:38;14.00;85.10
36710;DHT22;22694;51.040;3.684;2022-11-14T15:06:16;13.90;85.10
36710;DHT22;22694;51.040;3.684;2022-11-14T15:08:45;14.00;87.30
36710;DHT22;22694;51.040;3.684;2022-11-14T15:11:13;13.90;86.60
36710;DHT22;22694;51.040;3.684;2022-11-14T15:13:40;13.90;85.20
36710;DHT22;22694;51.040;3.684;2022-11-14T15:16:07;13.90;84.90
36710;DHT22;22694;51.040;3.684;2022-11-14T15:18:33;13.80;84.90
36710;DHT22;22694;51.040;3.684;2022-11-14T15:23:39;13.70;85.10
36710;DHT22;22694;51.040;3.684;2022-11-14T15:26:20;13.70;85.00
36710;DHT22;22694;51.040;3.684;2022-11-14T15:28:45;13.70;85.10
36710;DHT22;22694;51.040;3.684;2022-11-14T15:31:21;13.60;85.20
36710;DHT22;22694;51.040;3.684;2022-11-14T15:34:03;13.60;85.30
36710;DHT22;22694;51.040;3.684;2022-11-14T15:36:29;13.70;85.30
36710;DHT22;22694;51.040;3.684;2022-11-14T15:39:21;13.70;85.50
36710;DHT22;22694;51.040;3.684;2022-11-14T15:41:48;13.60;85.50
36710;DHT22;22694;51.040;3.684;2022-11-14T15:44:30;13.50;85.60
36710;DHT22;22694;51.040;3.684;2022-11-14T15:46:56;13.60;85.50
36710;DHT22;22694;51.040;3.684;2022-11-14T15:49:24;13.50;85.50
36710;DHT22;22694;51.040;3.684;2022-11-14T15:51:57;13.50;85.60
36710;DHT22;22694;51.040;3.684;2022-11-14T15:54:24;13.50;85.60
36710;DHT22;22694;51.040;3.684;2022-11-14T15:56:50;13.50;86.40
36710;DHT22;22694;51.040;3.684;2022-11-14T15:59:16;13.70;92.70
36710;DHT22;22694;51.040;3.684;2022-11-14T16:01:43;14.30;92.30
36710;DHT22;22694;51.040;3.684;2022-11-14T16:04:16;14.10;91.20
36710;DHT22;22694;51.040;3.684;2022-11-14T16:06:42;14.10;90.40
36710;DHT22;22694;51.040;3.684;2022-11-14T16:09:17;14.00;88.00
36710;DHT22;22694;51.040;3.684;2022-11-14T16:11:43;14.00;86.60
36710;DHT22;22694;51.040;3.684;2022-11-14T16:14:08;13.90;87.30
36710;DHT22;22694;51.040;3.684;2022-11-14T16:16:34;13.80;87.20
36710;DHT22;22694;51.040;3.684;2022-11-14T16:19:00;13.80;87.90
36710;DHT22;22694;51.040;3.684;2022-11-14T16:21:25;13.90;88.30
36710;DHT22;22694;51.040;3.684;2022-11-14T16:23:51;13.90;88.30
36710;DHT22;22694;51.040;3.684;2022-11-14T16:26:17;13.90;88.70
36710;DHT22;22694;51.040;3.684;2022-11-14T16:28:42;13.90;88.30
36710;DHT22;22694;51.040;3.684;2022-11-14T16:31:12;13.80;87.60
36710;DHT22;22694;51.040;3.684;2022-11-14T16:33:38;13.90;88.10
36710;DHT22;22694;51.040;3.684;2022-11-14T16:36:04;13.80;88.60
36710;DHT22;22694;51.040;3.684;2022-11-14T16:38:29;13.80;88.30
36710;DHT22;22694;51.040;3.684;2022-11-14T16:40:55;13.80;87.90
36710;DHT22;22694;51.040;3.684;2022-11-14T16:43:21;14.00;87.90
36710;DHT22;22694;51.040;3.684;2022-11-14T16:45:46;13.80;87.40
36710;DHT22;22694;51.040;3.684;2022-11-14T16:48:13;13.80;87.20
36710;DHT22;22694;51.040;3.684;2022-11-14T16:50:38;13.80;87.70
36710;DHT22;22694;51.040;3.684;2022-11-14T16:53:04;13.70;87.90
36710;DHT22;22694;51.040;3.684;2022-11-14T16:55:30;13.70;87.70
36710;DHT22;22694;51.040;3.684;2022-11-14T16:57:55;13.70;87.80
36710;DHT22;22694;51.040;3.684;2022-11-14T17:00:21;13.80;87.90
36710;DHT22;22694;51.040;3.684;2022-11-14T17:02:47;13.70;87.40
36710;DHT22;22694;51.040;3.684;2022-11-14T17:05:13;13.80;87.90
36710;DHT22;22694;51.040;3.684;2022-11-14T17:07:38;13.80;88.60
36710;DHT22;22694;51.040;3.684;2022-11-14T17:10:05;13.70;88.20
36710;DHT22;22694;51.040;3.684;2022-11-14T17:12:32;13.70;88.00
36710;DHT22;22694;51.040;3.684;2022-11-14T17:14:59;13.80;88.20
36710;DHT22;22694;51.040;3.684;2022-11-14T17:17:24;13.70;87.90
36710;DHT22;22694;51.040;3.684;2022-11-14T17:19:50;13.70;87.80
36710;DHT22;22694;51.040;3.684;2022-11-14T17:22:16;13.80;87.60
36710;DHT22;22694;51.040;3.684;2022-11-14T17:24:43;13.70;87.20
36710;DHT22;22694;51.040;3.684;2022-11-14T17:27:09;13.70;87.10
36710;DHT22;22694;51.040;3.684;2022-11-14T17:29:37;13.70;87.00
36710;DHT22;22694;51.040;3.684;2022-11-14T17:32:03;13.70;87.20